Time;durP1;ratioP1;P1;durP2;ratioP2;P2;SDS_P1;SDS_P2;PMS_P1;PMS_P2;Temp;Humidity;BMP_temperature;BMP_pressure;BME280_temperature;BME280_humidity;BME280_pressure;Samples;Min_cycle;Max_cycle;Signal;HPM_P1;HPM_P2
2022/06/23 11:07:49;;;;;;;2.22;1.80;;;;;;;;;;1157047;23;20506;-94
2022/06/23 11:10:32;;;;;;;2.40;1.70;;;;;;;;;;4979347;28;20202;-96
2022/06/23 11:13:12;;;;;;;2.00;1.55;;;;;;;;;;4980207;28;20283;-95
2022/06/23 11:23:45;;;;;;;4.07;1.77;;;;;;;;;;5064863;23;20214;-96
2022/06/23 11:26:31;;;;;;;2.47;1.70;;;;;;;;;;4981018;29;20191;-96
2022/06/23 11:44:37;;;;;;;1.40;1.30;;;;;;;;;;5667067;23;20226;-95
2022/06/23 11:47:11;;;;;;;3.33;1.70;;;;;;;;;;4980752;28;20187;-95
2022/06/23 11:49:44;;;;;;;4.05;1.80;;;;;;;;;;4982910;28;20230;-95
2022/06/23 11:52:18;;;;;;;2.13;1.30;;;;;;;;;;4983219;28;20186;-95
2022/06/23 11:54:54;;;;;;;1.98;1.48;;;;;;;;;;4982239;28;20183;-96
2022/06/23 12:01:06;;;;;;;1.55;1.45;;;;;;;;;;4967926;28;20214;-96
2022/06/23 12:03:46;;;;;;;1.98;1.55;;;;;;;;;;4983126;28;20187;-96
2022/06/23 12:09:11;;;;;;;2.42;1.50;;;;;;;;;;4979025;28;20214;-95
2022/06/23 13:58:56;;;;;;;1.95;1.05;;;;;;;;;;4978841;28;20209;-94
2022/06/23 14:01:29;;;;;;;2.20;1.40;;;;;;;;;;4980150;28;20211;-96
2022/06/23 14:04:01;;;;;;;2.05;1.00;;;;;;;;;;4979467;28;20218;-93
2022/06/23 14:06:35;;;;;;;1.33;1.08;;;;;;;;;;4980551;28;20254;-94
2022/06/23 14:09:05;;;;;;;2.10;1.20;;;;;;;;;;4980166;28;20198;-96
2022/06/23 14:11:39;;;;;;;1.50;1.10;;;;;;;;;;4979965;28;20182;-92
2022/06/23 14:14:12;;;;;;;1.95;1.40;;;;;;;;;;4977522;28;20194;-93
2022/06/23 14:16:44;;;;;;;1.00;1.00;;;;;;;;;;4980474;28;20226;-93
2022/06/23 14:19:17;;;;;;;1.30;1.20;;;;;;;;;;4980345;28;20214;-96
2022/06/23 14:21:49;;;;;;;2.85;1.15;;;;;;;;;;4980481;28;20182;-95
2022/06/23 14:24:20;;;;;;;1.65;1.10;;;;;;;;;;4978779;28;20198;-93
2022/06/23 14:26:56;;;;;;;3.13;1.10;;;;;;;;;;4976641;29;20209;-93
2022/06/23 14:29:28;;;;;;;2.13;1.10;;;;;;;;;;4975422;28;20261;-93
2022/06/23 14:32:01;;;;;;;1.90;1.25;;;;;;;;;;4980312;28;20206;-93
2022/06/23 14:34:32;;;;;;;2.92;1.27;;;;;;;;;;4980172;28;20198;-96
2022/06/23 14:46:50;;;;;;;1.38;1.10;;;;;;;;;;4973582;28;20224;-94
2022/06/23 14:49:30;;;;;;;1.30;1.23;;;;;;;;;;4979230;28;20179;-96
2022/06/23 14:52:06;;;;;;;1.63;1.20;;;;;;;;;;4979798;28;20204;-95
2022/06/23 14:54:39;;;;;;;1.27;1.17;;;;;;;;;;5001070;23;20218;-95
2022/06/23 14:57:21;;;;;;;2.00;1.33;;;;;;;;;;4979749;28;20221;-96
2022/06/23 14:59:53;;;;;;;2.22;1.20;;;;;;;;;;4980063;28;20210;-94
2022/06/23 15:02:31;;;;;;;1.23;1.13;;;;;;;;;;4979993;28;20186;-96
2022/06/23 15:30:22;;;;;;;1.52;1.40;;;;;;;;;;4981217;28;20220;-93
2022/06/23 15:32:52;;;;;;;2.17;1.27;;;;;;;;;;4982784;28;20199;-93
2022/06/23 15:38:52;;;;;;;1.90;1.42;;;;;;;;;;4982272;28;20206;-95
2022/06/23 15:41:26;;;;;;;1.67;1.10;;;;;;;;;;4982620;28;20212;-93
2022/06/23 15:44:01;;;;;;;1.25;1.15;;;;;;;;;;4980848;28;20255;-93
2022/06/23 15:46:42;;;;;;;1.23;1.13;;;;;;;;;;4981731;28;20198;-92
2022/06/23 15:49:21;;;;;;;2.42;1.30;;;;;;;;;;4982035;28;20255;-94
2022/06/23 15:51:53;;;;;;;2.03;1.30;;;;;;;;;;4982812;28;20196;-94
2022/06/23 15:59:52;;;;;;;1.40;1.30;;;;;;;;;;5127203;23;20238;-93
2022/06/23 16:20:58;;;;;;;3.65;1.60;;;;;;;;;;4982606;28;20206;-96
2022/06/23 16:23:32;;;;;;;2.92;1.60;;;;;;;;;;4982048;28;20206;-92
2022/06/23 16:26:04;;;;;;;1.95;1.40;;;;;;;;;;4982222;28;20190;-94
2022/06/23 16:28:38;;;;;;;1.90;1.45;;;;;;;;;;4981077;28;20230;-92
2022/06/23 16:31:19;;;;;;;1.40;1.30;;;;;;;;;;4981332;28;20226;-92
2022/06/23 16:33:53;;;;;;;1.70;1.60;;;;;;;;;;4981526;28;20191;-92
2022/06/23 16:36:35;;;;;;;2.90;1.60;;;;;;;;;;4982110;28;20186;-92
2022/06/23 16:39:17;;;;;;;1.48;1.30;;;;;;;;;;4964633;28;20294;-94
2022/06/23 16:42:01;;;;;;;1.67;1.58;;;;;;;;;;4981855;28;20190;-94
2022/06/23 16:44:34;;;;;;;4.15;1.50;;;;;;;;;;4964915;29;20189;-92
2022/06/23 16:56:01;;;;;;;4.40;1.40;;;;;;;;;;5128275;23;20230;-91
2022/06/23 19:14:38;;;;;;;2.20;2.00;;;;;;;;;;5680346;23;20268;-75
2022/06/23 19:17:21;;;;;;;2.08;1.88;;;;;;;;;;4936316;29;20217;-74
2022/06/23 19:19:52;;;;;;;2.30;2.10;;;;;;;;;;4933491;29;20306;-75
2022/06/23 19:22:23;;;;;;;2.58;2.25;;;;;;;;;;4934616;29;20540;-75
2022/06/23 19:24:59;;;;;;;3.92;2.20;;;;;;;;;;4933171;29;20231;-74
2022/06/23 19:27:37;;;;;;;2.75;2.30;;;;;;;;;;4928481;29;20294;-75
2022/06/23 19:30:10;;;;;;;3.45;2.30;;;;;;;;;;4932056;29;20281;-75
2022/06/23 19:32:44;;;;;;;3.22;2.10;;;;;;;;;;4934697;29;20278;-75
2022/06/23 19:35:16;;;;;;;2.45;2.25;;;;;;;;;;4934521;29;20227;-75
2022/06/23 19:37:55;;;;;;;3.33;2.03;;;;;;;;;;4933226;29;20208;-74
2022/06/23 19:40:54;;;;;;;2.97;2.08;;;;;;;;;;4928940;29;20638;-75
2022/06/23 19:43:46;;;;;;;2.65;2.17;;;;;;;;;;4877777;29;20605;-74
2022/06/23 19:46:17;;;;;;;2.25;1.90;;;;;;;;;;4926714;29;20696;-75
2022/06/23 19:48:47;;;;;;;3.70;2.08;;;;;;;;;;4935084;29;20210;-74
2022/06/23 19:51:16;;;;;;;5.72;2.00;;;;;;;;;;4934311;29;20210;-74
2022/06/23 19:53:48;;;;;;;3.60;2.05;;;;;;;;;;4932594;29;20215;-75
2022/06/23 19:56:21;;;;;;;2.70;2.40;;;;;;;;;;4933257;29;20207;-75
2022/06/23 19:59:17;;;;;;;3.30;2.20;;;;;;;;;;4931389;29;20238;-75
2022/06/23 20:01:48;;;;;;;2.85;2.10;;;;;;;;;;4931892;29;20211;-75
2022/06/23 20:04:21;;;;;;;2.35;1.98;;;;;;;;;;4935552;29;20231;-75
2022/06/23 20:06:59;;;;;;;2.70;2.00;;;;;;;;;;4927532;29;20252;-74
2022/06/23 20:09:33;;;;;;;3.35;2.20;;;;;;;;;;4928906;29;20226;-74
2022/06/23 20:12:04;;;;;;;4.10;2.30;;;;;;;;;;4935230;29;20200;-75
2022/06/23 20:14:35;;;;;;;3.22;2.17;;;;;;;;;;4932300;29;20239;-75
2022/06/23 20:17:09;;;;;;;3.88;2.10;;;;;;;;;;4936958;29;20213;-74
2022/06/23 20:19:44;;;;;;;2.85;2.00;;;;;;;;;;4927845;29;20222;-74
2022/06/23 20:22:16;;;;;;;2.65;2.13;;;;;;;;;;4933777;29;20207;-75
2022/06/23 20:24:52;;;;;;;3.50;2.22;;;;;;;;;;4936595;29;20258;-75
2022/06/23 20:27:25;;;;;;;3.55;2.30;;;;;;;;;;4936917;29;20285;-75
2022/06/23 20:30:00;;;;;;;3.47;2.00;;;;;;;;;;4936115;29;20206;-75
2022/06/23 20:32:36;;;;;;;4.38;2.30;;;;;;;;;;4934272;29;20613;-75
2022/06/23 20:35:20;;;;;;;2.83;2.00;;;;;;;;;;4936150;29;20285;-75
2022/06/23 20:37:58;;;;;;;2.72;2.08;;;;;;;;;;4924762;29;20239;-75
2022/06/23 20:40:34;;;;;;;3.67;2.10;;;;;;;;;;4934609;29;20570;-75
2022/06/23 20:43:07;;;;;;;2.25;2.05;;;;;;;;;;4936786;29;20616;-75
2022/06/23 20:45:46;;;;;;;2.28;2.08;;;;;;;;;;4936241;29;20270;-75
2022/06/23 20:48:24;;;;;;;4.55;2.20;;;;;;;;;;4938917;29;20234;-75
2022/06/23 20:50:55;;;;;;;4.45;2.10;;;;;;;;;;4932548;29;21257;-75
2022/06/23 20:53:39;;;;;;;2.80;2.10;;;;;;;;;;4942324;29;20200;-75
2022/06/23 20:56:14;;;;;;;2.30;2.10;;;;;;;;;;4935482;29;20222;-75
2022/06/23 20:58:48;;;;;;;2.20;2.00;;;;;;;;;;4920664;29;20231;-75
2022/06/23 21:01:20;;;;;;;2.72;2.13;;;;;;;;;;4933743;29;20259;-75
2022/06/23 21:03:56;;;;;;;2.55;1.90;;;;;;;;;;4937619;29;20207;-74
2022/06/23 21:06:28;;;;;;;2.10;1.90;;;;;;;;;;4928438;29;20210;-75
2022/06/23 21:09:01;;;;;;;4.63;2.20;;;;;;;;;;4930089;29;20200;-75
2022/06/23 21:11:33;;;;;;;3.22;2.25;;;;;;;;;;4935875;29;20659;-75
2022/06/23 21:14:06;;;;;;;3.00;2.08;;;;;;;;;;4935852;29;20238;-75
2022/06/23 21:16:39;;;;;;;3.75;2.10;;;;;;;;;;4935712;29;20210;-75
2022/06/23 21:19:18;;;;;;;3.10;1.95;;;;;;;;;;4937525;29;20258;-75
2022/06/23 21:21:50;;;;;;;2.78;2.00;;;;;;;;;;4924287;29;20215;-75
2022/06/23 21:24:30;;;;;;;2.50;2.10;;;;;;;;;;4934853;29;20318;-75
2022/06/23 21:27:05;;;;;;;2.75;2.25;;;;;;;;;;4925080;29;20218;-75
2022/06/23 21:29:41;;;;;;;4.07;2.00;;;;;;;;;;4937893;29;20671;-75
2022/06/23 21:32:11;;;;;;;2.63;2.30;;;;;;;;;;4944143;29;20302;-75
2022/06/23 21:34:46;;;;;;;2.30;2.10;;;;;;;;;;4929381;29;20310;-75
2022/06/23 21:37:16;;;;;;;4.82;2.20;;;;;;;;;;4939295;29;20217;-75
2022/06/23 21:39:47;;;;;;;2.88;1.80;;;;;;;;;;4937445;29;20669;-75
2022/06/23 21:42:18;;;;;;;2.30;2.10;;;;;;;;;;4947987;29;20612;-75
2022/06/23 21:44:50;;;;;;;2.90;2.10;;;;;;;;;;4936974;29;20750;-75
2022/06/23 21:47:23;;;;;;;3.83;2.17;;;;;;;;;;4935341;29;20238;-75
2022/06/23 21:50:00;;;;;;;5.05;2.15;;;;;;;;;;4930460;29;20203;-75
2022/06/23 21:52:38;;;;;;;2.75;2.30;;;;;;;;;;4934883;29;20210;-75
2022/06/23 21:55:10;;;;;;;2.28;2.08;;;;;;;;;;4936283;29;20233;-75
2022/06/23 21:57:45;;;;;;;3.28;2.20;;;;;;;;;;4936673;29;20231;-75
2022/06/23 22:00:17;;;;;;;3.50;2.20;;;;;;;;;;4933445;29;20659;-75
2022/06/23 22:02:49;;;;;;;2.85;2.00;;;;;;;;;;4931597;29;20215;-75
2022/06/23 22:05:25;;;;;;;2.15;1.98;;;;;;;;;;4945465;29;20313;-75
2022/06/23 22:07:57;;;;;;;3.50;2.22;;;;;;;;;;4941422;29;20297;-75
2022/06/23 22:10:27;;;;;;;2.47;1.92;;;;;;;;;;4940471;29;20210;-75
2022/06/23 22:12:58;;;;;;;4.13;2.10;;;;;;;;;;4935683;29;20262;-75
2022/06/23 22:15:32;;;;;;;2.47;2.28;;;;;;;;;;4936677;29;20246;-75
2022/06/23 22:18:01;;;;;;;4.55;2.22;;;;;;;;;;4935783;29;20226;-75
2022/06/23 22:20:37;;;;;;;3.13;2.03;;;;;;;;;;4926064;29;20230;-75
2022/06/23 22:23:17;;;;;;;3.65;2.17;;;;;;;;;;4936211;29;20200;-75
2022/06/23 22:28:34;;;;;;;3.08;2.20;;;;;;;;;;4934678;29;20253;-75
2022/06/23 22:31:02;;;;;;;2.50;2.10;;;;;;;;;;4929364;29;20251;-75
2022/06/23 22:33:45;;;;;;;2.35;1.88;;;;;;;;;;4935551;29;20270;-75
2022/06/23 22:36:37;;;;;;;3.45;2.20;;;;;;;;;;4935592;29;20247;-75
2022/06/23 22:39:19;;;;;;;2.38;2.17;;;;;;;;;;4928368;29;20203;-75
2022/06/23 22:42:16;;;;;;;2.28;2.08;;;;;;;;;;4936254;29;20254;-75
2022/06/23 22:45:09;;;;;;;2.80;2.40;;;;;;;;;;4934426;29;20231;-75
2022/06/23 22:47:38;;;;;;;4.13;2.47;;;;;;;;;;4930142;29;20215;-75
2022/06/23 22:50:21;;;;;;;2.45;2.00;;;;;;;;;;4936208;29;20203;-75
2022/06/23 22:52:52;;;;;;;3.22;1.92;;;;;;;;;;4931434;29;20255;-75
2022/06/23 22:55:39;;;;;;;5.20;2.30;;;;;;;;;;4935711;29;20639;-75
2022/06/23 22:58:08;;;;;;;3.13;1.95;;;;;;;;;;4934473;29;20626;-75
2022/06/23 23:00:56;;;;;;;2.20;2.10;;;;;;;;;;4935350;29;20279;-75
2022/06/23 23:03:38;;;;;;;3.53;2.38;;;;;;;;;;4932374;29;20706;-75
2022/06/23 23:06:17;;;;;;;3.95;2.28;;;;;;;;;;4935102;29;21118;-75
2022/06/23 23:08:48;;;;;;;4.30;2.20;;;;;;;;;;4935364;29;20211;-75
2022/06/23 23:11:21;;;;;;;3.72;2.22;;;;;;;;;;4935745;29;20195;-75
2022/06/23 23:13:52;;;;;;;2.60;2.30;;;;;;;;;;4933418;29;20243;-75
2022/06/23 23:16:24;;;;;;;3.13;2.40;;;;;;;;;;4928181;29;20278;-75
2022/06/23 23:18:56;;;;;;;2.78;2.50;;;;;;;;;;4932560;29;20239;-75
2022/06/23 23:21:27;;;;;;;3.72;2.22;;;;;;;;;;4934568;29;20735;-75
2022/06/23 23:24:00;;;;;;;3.17;2.38;;;;;;;;;;4935820;29;20270;-74
2022/06/23 23:26:29;;;;;;;2.58;2.10;;;;;;;;;;4931571;29;20243;-75
2022/06/23 23:28:58;;;;;;;5.68;2.28;;;;;;;;;;4930419;29;20210;-75
2022/06/23 23:31:31;;;;;;;4.05;2.38;;;;;;;;;;4931123;29;20212;-75
2022/06/23 23:33:59;;;;;;;2.83;2.10;;;;;;;;;;4935186;29;20231;-75
2022/06/23 23:36:28;;;;;;;2.78;2.35;;;;;;;;;;4934481;29;20234;-74
2022/06/23 23:39:03;;;;;;;2.38;2.17;;;;;;;;;;4938494;29;20207;-74
2022/06/23 23:41:33;;;;;;;2.40;2.20;;;;;;;;;;4938463;29;20628;-74
2022/06/23 23:44:02;;;;;;;6.65;2.50;;;;;;;;;;4939283;29;20230;-74
2022/06/23 23:46:32;;;;;;;2.40;2.20;;;;;;;;;;4937469;29;20199;-75
2022/06/23 23:49:03;;;;;;;3.47;2.25;;;;;;;;;;4937731;29;20215;-75
2022/06/23 23:51:32;;;;;;;2.70;2.25;;;;;;;;;;4937383;29;20621;-75
2022/06/23 23:54:02;;;;;;;3.35;2.33;;;;;;;;;;4939152;29;20294;-75
2022/06/23 23:56:30;;;;;;;2.75;2.20;;;;;;;;;;4937958;29;20254;-75
2022/06/23 23:59:00;;;;;;;2.28;1.90;;;;;;;;;;4938766;29;20604;-75
